CLD3 weather

Burns Lake (LD Air) Water Aerodrome
Burns Lake, British Columbia, Canada

Public forecast

Using degrees Celsius for public forecast. Weather courtesy of forecast.io.

METAR (pilot weather report)

Closest report is Smithers Airport, 61.9 nm (114.6 km) NW. Retrieved 2019/08/25 05:00 UTC (57 minutes ago):

CYYD 250500Z 00000KT 25SM FEW065 SCT120 12/10 A2991 RMK SC2AC2 LAST STFD OBS/NEXT 251300Z SLP136 DENSITY ALT 1800FT

TAF (pilot weather forecast)

Closest forecast is Smithers Airport, 61.9 nm (114.6 km) NW. Retrieved 2019/08/25 01:00 UTC (5 hours ago):

TAF CYYD 250038Z 2501/2506 VRB03KT P6SM BKN060 TEMPO 2501/2506 P6SM -SHRA BECMG 2501/2503 32006KT RMK NXT FCST WILL BE ISSUED AT 251345Z